createdAt,value
2018-10-02T00:01:59.706Z,101331.16
2018-10-02T00:04:28.096Z,101326.30
2018-10-02T00:06:56.463Z,101321.91
2018-10-02T00:09:24.842Z,101319.65
2018-10-02T00:11:58.518Z,101321.67
2018-10-02T00:14:28.713Z,101323.28
2018-10-02T00:16:57.270Z,101319.31
2018-10-02T00:19:25.717Z,101320.88
2018-10-02T00:21:54.085Z,101321.20
2018-10-02T00:24:22.470Z,101323.67
2018-10-02T00:26:50.826Z,101327.03
2018-10-02T00:29:19.238Z,101332.09
2018-10-02T00:31:47.692Z,101328.49
2018-10-02T00:34:16.025Z,101323.22
2018-10-02T00:36:44.390Z,101326.98
2018-10-02T00:39:12.803Z,101322.11
2018-10-02T00:41:41.182Z,101323.70
2018-10-02T00:44:09.549Z,101321.06
2018-10-02T00:46:37.932Z,101329.64
2018-10-02T00:49:06.290Z,101335.56
2018-10-02T00:51:34.669Z,101332.45
2018-10-02T00:54:03.046Z,101339.25
2018-10-02T00:56:31.422Z,101335.27
2018-10-02T00:58:59.796Z,101342.49
2018-10-02T01:01:28.186Z,101341.55
2018-10-02T01:03:56.545Z,101344.89
2018-10-02T01:06:24.923Z,101344.36
2018-10-02T01:08:53.281Z,101342.55
2018-10-02T01:11:21.681Z,101333.41
2018-10-02T01:13:50.046Z,101341.41
2018-10-02T01:16:18.434Z,101339.18
2018-10-02T01:18:46.802Z,101333.49
2018-10-02T01:21:15.185Z,101333.45
2018-10-02T01:23:43.559Z,101339.83
2018-10-02T01:26:11.945Z,101339.72
2018-10-02T01:28:40.338Z,101336.19
2018-10-02T01:31:08.756Z,101344.27
2018-10-02T01:33:37.146Z,101345.11
2018-10-02T01:36:06.784Z,101341.13
2018-10-02T01:38:35.140Z,101344.08
2018-10-02T01:41:03.531Z,101340.98
2018-10-02T01:43:31.893Z,101334.14
2018-10-02T01:46:00.279Z,101332.71
2018-10-02T01:48:28.641Z,101338.77
2018-10-02T01:50:57.025Z,101338.70
2018-10-02T01:53:25.413Z,101335.66
2018-10-02T01:55:53.810Z,101334.64
2018-10-02T01:58:22.173Z,101345.56
2018-10-02T02:00:50.567Z,101339.04
2018-10-02T02:03:18.959Z,101345.07
2018-10-02T02:05:47.426Z,101341.16
2018-10-02T02:08:15.821Z,101336.80
2018-10-02T02:10:44.210Z,101328.95
2018-10-02T02:13:12.578Z,101332.89
2018-10-02T02:15:41.009Z,101340.14
2018-10-02T02:18:09.369Z,101339.69
2018-10-02T02:20:37.758Z,101344.84
2018-10-02T02:23:06.162Z,101345.64
2018-10-02T02:25:34.550Z,101342.19
2018-10-02T02:28:02.955Z,101345.18
2018-10-02T02:30:31.379Z,101336.16
2018-10-02T02:32:59.791Z,101333.92
2018-10-02T02:35:28.161Z,101332.22
2018-10-02T02:37:56.541Z,101333.50
2018-10-02T02:40:24.921Z,101328.77
2018-10-02T02:42:53.306Z,101324.78
2018-10-02T02:45:21.674Z,101326.53
2018-10-02T02:47:55.374Z,101275.24
2018-10-02T02:50:29.050Z,101321.26
2018-10-02T02:53:00.386Z,101321.26
2018-10-02T02:55:29.085Z,101318.15
2018-10-02T02:57:57.487Z,101321.22
2018-10-02T03:00:25.855Z,101322.02
2018-10-02T03:02:54.245Z,101317.20
2018-10-02T03:05:22.752Z,101315.45
2018-10-02T03:07:51.278Z,101317.62
2018-10-02T03:10:19.651Z,101312.77
2018-10-02T03:12:48.046Z,101315.34
2018-10-02T03:15:16.406Z,101311.47
2018-10-02T03:17:44.816Z,101314.85
2018-10-02T03:20:13.186Z,101319.13
2018-10-02T03:22:41.578Z,101316.48
2018-10-02T03:25:10.085Z,101320.84
2018-10-02T03:27:38.491Z,101319.47
2018-10-02T03:30:06.889Z,101314.27
2018-10-02T03:32:35.285Z,101318.14
2018-10-02T03:35:03.853Z,101326.67
2018-10-02T03:37:32.237Z,101322.27
2018-10-02T03:40:00.797Z,101326.55
2018-10-02T03:42:29.181Z,101324.39
2018-10-02T03:44:57.545Z,101316.92
2018-10-02T03:47:25.937Z,101325.94
2018-10-02T03:49:54.298Z,101327.19
2018-10-02T03:52:22.831Z,101322.83
2018-10-02T03:54:51.197Z,101321.91
2018-10-02T03:57:19.577Z,101320.97
2018-10-02T03:59:47.941Z,101325.17
2018-10-02T04:02:16.325Z,101316.57
2018-10-02T04:04:44.681Z,101320.36
2018-10-02T04:07:13.074Z,101322.89
2018-10-02T04:09:41.438Z,101334.86
2018-10-02T04:12:09.825Z,101322.32
2018-10-02T04:14:38.181Z,101327.02
2018-10-02T04:17:06.578Z,101322.95
2018-10-02T04:19:34.941Z,101325.61
2018-10-02T04:22:04.111Z,101329.81
2018-10-02T04:24:32.481Z,101332.80
2018-10-02T04:27:00.874Z,101332.27
2018-10-02T04:29:29.264Z,101332.27
2018-10-02T04:31:57.730Z,101327.86
2018-10-02T04:34:26.120Z,101320.02
2018-10-02T04:36:54.490Z,101320.89
2018-10-02T04:39:22.880Z,101322.59
2018-10-02T04:41:51.270Z,101316.08
2018-10-02T04:44:19.661Z,101322.52
2018-10-02T04:46:48.043Z,101321.64
2018-10-02T04:49:16.443Z,101325.91
2018-10-02T04:51:45.023Z,101330.58
2018-10-02T04:54:13.499Z,101332.73
2018-10-02T04:56:42.097Z,101334.93
2018-10-02T04:59:10.478Z,101335.31
2018-10-02T05:01:38.846Z,101331.45
2018-10-02T05:04:07.237Z,101331.60
2018-10-02T05:06:35.639Z,101328.20
2018-10-02T05:09:04.796Z,101327.45
2018-10-02T05:11:33.187Z,101327.56
2018-10-02T05:14:01.639Z,101333.33
2018-10-02T05:16:30.043Z,101335.58
2018-10-02T05:18:58.440Z,101339.97
2018-10-02T05:21:26.809Z,101337.86
2018-10-02T05:23:55.281Z,101345.32
2018-10-02T05:26:23.764Z,101340.70
2018-10-02T05:28:52.183Z,101349.35
2018-10-02T05:31:20.562Z,101362.77
2018-10-02T05:33:48.980Z,101363.27
2018-10-02T05:36:17.359Z,101357.62
2018-10-02T05:38:45.746Z,101354.78
2018-10-02T05:41:14.111Z,101362.55
2018-10-02T05:43:42.498Z,101353.61
2018-10-02T05:46:11.014Z,101351.98
2018-10-02T05:48:39.416Z,101345.05
2018-10-02T05:51:08.026Z,101353.05
2018-10-02T05:53:36.567Z,101340.62
2018-10-02T05:56:04.941Z,101342.52
2018-10-02T05:58:33.351Z,101345.22
2018-10-02T06:01:01.718Z,101345.75
2018-10-02T06:03:30.115Z,101347.64
2018-10-02T06:05:58.491Z,101349.05
2018-10-02T06:08:26.895Z,101346.66
2018-10-02T06:10:55.261Z,101344.73
2018-10-02T06:13:23.695Z,101350.53
2018-10-02T06:15:52.072Z,101352.13
2018-10-02T06:18:20.467Z,101349.80
2018-10-02T06:20:50.065Z,101355.26
2018-10-02T06:23:18.508Z,101348.65
2018-10-02T06:25:46.902Z,101346.05
2018-10-02T06:28:15.287Z,101339.89
2018-10-02T06:30:43.682Z,101332.84
2018-10-02T06:33:12.062Z,101336.66
2018-10-02T06:35:40.458Z,101330.06
2018-10-02T06:38:08.928Z,101331.21
2018-10-02T06:40:37.272Z,101333.61
2018-10-02T06:43:05.659Z,101338.11
2018-10-02T06:45:34.056Z,101331.41
2018-10-02T06:48:02.444Z,101328.54
2018-10-02T06:50:30.905Z,101329.58
2018-10-02T06:52:59.244Z,101326.64
2018-10-02T06:55:27.643Z,101327.68
2018-10-02T06:57:56.020Z,101324.77
2018-10-02T07:00:24.449Z,101327.10
2018-10-02T07:02:52.849Z,101304.43
2018-10-02T07:05:21.249Z,101320.80
2018-10-02T07:07:49.643Z,101323.13
2018-10-02T07:10:18.034Z,101316.86
2018-10-02T07:12:46.441Z,101319.73
2018-10-02T07:15:14.842Z,101319.50
2018-10-02T07:17:43.224Z,101314.59
2018-10-02T07:20:11.623Z,101316.00
2018-10-02T07:22:39.994Z,101314.50
2018-10-02T07:25:08.401Z,101310.00
2018-10-02T07:27:36.864Z,101309.52
2018-10-02T07:30:05.306Z,101297.25
2018-10-02T07:32:33.709Z,101300.00
2018-10-02T07:35:02.105Z,101305.83
2018-10-02T07:37:30.477Z,101299.09
2018-10-02T07:39:58.926Z,101297.97
2018-10-02T07:42:27.408Z,101303.28
2018-10-02T07:44:55.800Z,101287.89
2018-10-02T07:47:24.311Z,101296.67
2018-10-02T07:49:52.695Z,101293.02
2018-10-02T07:52:21.058Z,101283.23
2018-10-02T07:54:49.451Z,101286.45
2018-10-02T07:57:17.824Z,101286.16
2018-10-02T07:59:46.365Z,101275.52
2018-10-02T08:02:14.751Z,101265.23
2018-10-02T08:04:43.230Z,101272.66
2018-10-02T08:07:11.614Z,101274.92
2018-10-02T08:09:40.004Z,101274.55
2018-10-02T08:12:08.497Z,101272.84
2018-10-02T08:14:36.847Z,101270.20
2018-10-02T08:17:05.212Z,101274.08
2018-10-02T08:19:33.596Z,101277.52
2018-10-02T08:22:01.987Z,101283.14
2018-10-02T08:24:30.359Z,101281.42
2018-10-02T08:26:58.782Z,101271.17
2018-10-02T08:29:27.251Z,101276.43
2018-10-02T08:31:55.638Z,101273.06
2018-10-02T08:34:24.069Z,101273.98
2018-10-02T08:36:52.436Z,101269.23
2018-10-02T08:39:20.802Z,101269.66
2018-10-02T08:41:49.267Z,101267.02
2018-10-02T08:44:17.603Z,101267.86
2018-10-02T08:46:45.999Z,101266.59
2018-10-02T08:49:14.387Z,101264.91
2018-10-02T08:51:42.803Z,101254.13
2018-10-02T08:54:11.175Z,101239.09
2018-10-02T08:56:39.615Z,101243.10
2018-10-02T08:59:08.405Z,101244.52
2018-10-02T09:01:36.927Z,101248.11
2018-10-02T09:04:05.485Z,101243.48
2018-10-02T09:06:33.900Z,101240.58
2018-10-02T09:09:02.278Z,101239.28
2018-10-02T09:11:30.695Z,101242.74
2018-10-02T09:13:59.068Z,101230.23
2018-10-02T09:16:27.565Z,101232.06
2018-10-02T09:18:55.936Z,101235.16
2018-10-02T09:21:24.356Z,101230.47
2018-10-02T09:23:53.305Z,101228.80
2018-10-02T09:26:21.714Z,101229.34
2018-10-02T09:28:50.107Z,101226.81
2018-10-02T09:31:23.895Z,101227.75
2018-10-02T09:33:57.694Z,101230.72
2018-10-02T09:36:31.463Z,101228.98
2018-10-02T09:39:05.324Z,101225.89
2018-10-02T09:41:39.043Z,101226.70
2018-10-02T09:44:07.586Z,101236.63
2018-10-02T09:46:35.975Z,101231.02
2018-10-02T09:49:04.385Z,101229.28
2018-10-02T09:51:32.792Z,101221.95
2018-10-02T09:54:01.187Z,101212.44
2018-10-02T09:56:34.941Z,101215.95
2018-10-02T09:59:03.331Z,101208.17
2018-10-02T10:01:37.075Z,101203.44
2018-10-02T10:04:05.524Z,101196.64
2018-10-02T10:06:33.906Z,101184.59
2018-10-02T10:09:02.297Z,101169.95
2018-10-02T10:11:30.675Z,101166.94
2018-10-02T10:13:59.074Z,101158.33
2018-10-02T10:16:27.480Z,101157.48
2018-10-02T10:18:55.861Z,101138.60
2018-10-02T10:21:24.241Z,101135.26
2018-10-02T10:23:52.642Z,101118.46
2018-10-02T10:26:21.035Z,101112.91
2018-10-02T10:28:49.511Z,101112.14
2018-10-02T10:31:17.864Z,101105.31
2018-10-02T10:33:46.271Z,101109.77
2018-10-02T10:36:14.659Z,101107.27
2018-10-02T10:38:43.068Z,101098.72
2018-10-02T10:41:11.438Z,101095.89
2018-10-02T10:43:39.852Z,101100.41
2018-10-02T10:46:08.243Z,101083.67
2018-10-02T10:48:36.658Z,101089.78
2018-10-02T10:51:06.789Z,101085.45
2018-10-02T10:53:35.490Z,101082.86
2018-10-02T10:56:03.868Z,101072.95
2018-10-02T10:58:32.279Z,101063.83
2018-10-02T11:01:00.676Z,101059.11
2018-10-02T11:03:29.092Z,101050.93
2018-10-02T11:05:57.491Z,101027.18
2018-10-02T11:08:25.888Z,101024.63
2018-10-02T11:10:54.284Z,101024.71
2018-10-02T11:13:22.690Z,101018.73
2018-10-02T11:15:51.066Z,101014.02
2018-10-02T11:18:19.463Z,101010.20
2018-10-02T11:20:47.852Z,100995.56
2018-10-02T11:23:16.405Z,101003.80
2018-10-02T11:25:44.793Z,100994.75
2018-10-02T11:28:13.248Z,100984.83
2018-10-02T11:30:41.641Z,100977.44
2018-10-02T11:33:10.061Z,100977.47
2018-10-02T11:35:38.497Z,100962.72
2018-10-02T11:38:07.115Z,100966.53
2018-10-02T11:40:35.512Z,100962.59
2018-10-02T11:43:03.893Z,100947.45
2018-10-02T11:45:32.307Z,100945.68
2018-10-02T11:48:00.690Z,100953.00
2018-10-02T11:50:29.092Z,100945.61
2018-10-02T11:52:57.468Z,100935.65
2018-10-02T11:55:25.939Z,100921.77
2018-10-02T11:57:54.276Z,100924.83
2018-10-02T12:00:22.756Z,100914.91
2018-10-02T12:02:51.118Z,100912.68
2018-10-02T12:05:19.519Z,100903.55
2018-10-02T12:07:47.915Z,100906.58
2018-10-02T12:10:16.324Z,100902.25
2018-10-02T12:12:44.746Z,100897.45
2018-10-02T12:15:13.184Z,100890.89
2018-10-02T12:17:41.553Z,100885.19
2018-10-02T12:20:09.970Z,100882.52
2018-10-02T12:22:38.342Z,100880.27
2018-10-02T12:25:06.759Z,100869.78
2018-10-02T12:27:35.130Z,100860.66
2018-10-02T12:30:03.551Z,100853.62
2018-10-02T12:32:31.954Z,100851.38
2018-10-02T12:35:00.363Z,100848.27
2018-10-02T12:37:28.743Z,100836.91
2018-10-02T12:39:57.147Z,100823.81
2018-10-02T12:42:25.534Z,100831.03
2018-10-02T12:44:53.943Z,100827.93
2018-10-02T12:47:22.322Z,100818.84
2018-10-02T12:49:50.717Z,100812.76
2018-10-02T12:52:19.181Z,100820.89
2018-10-02T12:54:47.540Z,100818.22
2018-10-02T12:57:15.915Z,100813.42
2018-10-02T12:59:44.315Z,100816.40
2018-10-02T13:02:12.695Z,100793.84
2018-10-02T13:04:41.097Z,100779.94
2018-10-02T13:07:09.490Z,100791.08
2018-10-02T13:09:37.868Z,100784.09
2018-10-02T13:12:06.279Z,100787.06
2018-10-02T13:14:34.651Z,100758.98
2018-10-02T13:17:03.082Z,100747.76
2018-10-02T13:19:31.679Z,100752.55
2018-10-02T13:22:00.075Z,100748.63
2018-10-02T13:24:28.441Z,100744.30
2018-10-02T13:26:56.839Z,100730.52
2018-10-02T13:29:25.249Z,100730.48
2018-10-02T13:31:53.703Z,100733.07
2018-10-02T13:34:22.102Z,100728.72
2018-10-02T13:36:51.040Z,100724.39
2018-10-02T13:39:19.413Z,100714.84
2018-10-02T13:41:47.819Z,100701.89
2018-10-02T13:44:16.192Z,100711.83
2018-10-02T13:46:44.585Z,100705.39
2018-10-02T13:49:12.968Z,100702.33
2018-10-02T13:51:41.381Z,100701.89
2018-10-02T13:54:09.746Z,100698.88
2018-10-02T13:56:38.143Z,100700.56
2018-10-02T13:59:06.777Z,100691.06
2018-10-02T14:01:35.159Z,100694.47
2018-10-02T14:04:03.554Z,100678.45
2018-10-02T14:06:32.026Z,100676.21
2018-10-02T14:09:00.414Z,100669.25
2018-10-02T14:11:28.852Z,100669.22
2018-10-02T14:13:57.224Z,100662.27
2018-10-02T14:16:25.606Z,100666.11
2018-10-02T14:18:53.980Z,100660.06
2018-10-02T14:21:22.379Z,100656.14
2018-10-02T14:23:50.750Z,100659.98
2018-10-02T14:26:19.156Z,100654.37
2018-10-02T14:28:47.559Z,100659.07
2018-10-02T14:31:15.959Z,100659.94
2018-10-02T14:33:44.333Z,100652.59
2018-10-02T14:36:12.777Z,100654.75
2018-10-02T14:38:41.145Z,100660.33
2018-10-02T14:41:09.552Z,100659.94
2018-10-02T14:43:38.136Z,100653.03
2018-10-02T14:46:06.558Z,100654.28
2018-10-02T14:48:34.934Z,100652.55
2018-10-02T14:51:03.330Z,100664.17
2018-10-02T14:53:31.699Z,100655.97
2018-10-02T14:56:00.116Z,100652.09
2018-10-02T14:58:28.490Z,100647.73
2018-10-02T15:00:56.924Z,100639.95
2018-10-02T15:03:25.332Z,100640.38
2018-10-02T15:05:53.719Z,100635.20
2018-10-02T15:08:22.136Z,100641.67
2018-10-02T15:10:50.515Z,100641.68
2018-10-02T15:13:19.102Z,100634.78
2018-10-02T15:15:47.535Z,100649.45
2018-10-02T15:18:16.086Z,100639.56
2018-10-02T15:20:44.458Z,100632.66
2018-10-02T15:23:12.856Z,100620.14
2018-10-02T15:25:41.259Z,100627.09
2018-10-02T15:28:09.670Z,100619.32
2018-10-02T15:30:38.054Z,100617.20
2018-10-02T15:33:06.447Z,100612.06
2018-10-02T15:35:34.820Z,100612.53
2018-10-02T15:38:03.279Z,100605.67
2018-10-02T15:40:31.638Z,100613.02
2018-10-02T15:43:00.038Z,100609.59
2018-10-02T15:45:28.410Z,100602.73
2018-10-02T15:47:56.819Z,100600.14
2018-10-02T15:50:25.280Z,100598.92
2018-10-02T15:52:53.675Z,100595.47
2018-10-02T15:55:22.058Z,100593.78
2018-10-02T15:57:50.588Z,100597.27
2018-10-02T16:00:18.944Z,100606.81
2018-10-02T16:02:47.441Z,100592.56
2018-10-02T16:05:15.834Z,100586.55
2018-10-02T16:07:44.235Z,100585.30
2018-10-02T16:10:12.607Z,100596.59
2018-10-02T16:12:40.999Z,100592.28
2018-10-02T16:15:09.365Z,100593.22
2018-10-02T16:17:37.769Z,100595.38
2018-10-02T16:20:06.187Z,100585.91
2018-10-02T16:22:34.591Z,100588.14
2018-10-02T16:25:02.993Z,100579.94
2018-10-02T16:27:31.457Z,100579.53
2018-10-02T16:29:59.850Z,100586.48
2018-10-02T16:32:28.326Z,100585.22
2018-10-02T16:34:56.792Z,100591.70
2018-10-02T16:37:25.139Z,100590.88
2018-10-02T16:39:53.545Z,100593.93
2018-10-02T16:42:22.338Z,100593.53
2018-10-02T16:44:50.970Z,100601.31
2018-10-02T16:47:19.387Z,100598.75
2018-10-02T16:49:47.759Z,100603.50
2018-10-02T16:52:16.136Z,100612.18
2018-10-02T16:54:44.535Z,100611.78
2018-10-02T16:57:12.947Z,100600.98
2018-10-02T16:59:41.339Z,100595.40
2018-10-02T17:02:09.852Z,100584.16
2018-10-02T17:04:38.259Z,100589.78
2018-10-02T17:07:06.651Z,100589.37
2018-10-02T17:09:35.063Z,100587.22
2018-10-02T17:12:03.470Z,100578.58
2018-10-02T17:14:31.938Z,100585.52
2018-10-02T17:17:00.317Z,100588.55
2018-10-02T17:19:28.706Z,100584.23
2018-10-02T17:21:57.127Z,100576.48
2018-10-02T17:24:25.605Z,100587.28
2018-10-02T17:26:54.008Z,100588.64
2018-10-02T17:29:22.423Z,100595.12
2018-10-02T17:31:50.811Z,100592.14
2018-10-02T17:34:19.223Z,100595.19
2018-10-02T17:36:47.607Z,100605.59
2018-10-02T17:39:15.993Z,100597.81
2018-10-02T17:41:44.491Z,100598.28
2018-10-02T17:44:12.891Z,100606.52
2018-10-02T17:46:41.281Z,100604.36
2018-10-02T17:49:09.796Z,100593.13
2018-10-02T17:51:38.083Z,100592.26
2018-10-02T17:54:06.599Z,100594.42
2018-10-02T17:56:34.989Z,100596.58
2018-10-02T17:59:03.391Z,100599.18
2018-10-02T18:01:31.841Z,100602.63
2018-10-02T18:04:00.229Z,100593.92
2018-10-02T18:06:28.611Z,100599.08
2018-10-02T18:08:57.011Z,100599.08
2018-10-02T18:11:25.379Z,100595.19
2018-10-02T18:13:53.770Z,100575.74
2018-10-02T18:16:22.147Z,100577.44
2018-10-02T18:18:50.551Z,100575.31
2018-10-02T18:21:18.924Z,100577.44
2018-10-02T18:23:47.323Z,100575.74
2018-10-02T18:26:15.695Z,100574.81
2018-10-02T18:28:44.187Z,100572.19
2018-10-02T18:31:12.567Z,100574.78
2018-10-02T18:33:40.984Z,100581.63
2018-10-02T18:36:09.375Z,100593.30
2018-10-02T18:38:38.099Z,100594.09
2018-10-02T18:41:06.483Z,100590.17
2018-10-02T18:43:35.039Z,100600.02
2018-10-02T18:46:03.657Z,100599.12
2018-10-02T18:48:32.098Z,100592.60
2018-10-02T18:51:00.522Z,100593.90
2018-10-02T18:53:28.891Z,100594.73
2018-10-02T18:55:57.305Z,100595.16
2018-10-02T18:58:25.695Z,100593.43
2018-10-02T19:00:54.091Z,100599.48
2018-10-02T19:03:22.471Z,100607.69
2018-10-02T19:05:50.912Z,100612.04
2018-10-02T19:08:24.685Z,100605.96
2018-10-02T19:10:53.151Z,100615.93
2018-10-02T19:13:21.522Z,100619.82
2018-10-02T19:15:55.306Z,100622.38
2018-10-02T19:18:23.678Z,100623.67
2018-10-02T19:20:53.059Z,100621.52
2018-10-02T19:23:21.447Z,100624.94
2018-10-02T19:25:55.284Z,100618.45
2018-10-02T19:28:23.679Z,100615.00
2018-10-02T19:30:57.492Z,100613.30
2018-10-02T19:33:25.868Z,100621.52
2018-10-02T19:35:54.343Z,100612.01
2018-10-02T19:39:27.823Z,100612.88
2018-10-02T19:41:56.594Z,100615.42
2018-10-02T19:44:25.070Z,100612.44
2018-10-02T19:46:58.986Z,100614.60
2018-10-02T19:49:28.983Z,100622.81
2018-10-02T19:52:06.654Z,100621.52
2018-10-02T19:54:35.035Z,100619.35
2018-10-02T19:57:03.438Z,100619.78
2018-10-02T19:59:31.898Z,100617.23
2018-10-02T20:02:00.337Z,100620.69
2018-10-02T20:04:28.719Z,100618.16
2018-10-02T20:06:57.128Z,100622.55
2018-10-02T20:09:25.511Z,100623.02
2018-10-02T20:11:53.923Z,100623.92
2018-10-02T20:14:22.298Z,100617.47
2018-10-02T20:16:50.802Z,100620.96
2018-10-02T20:19:19.243Z,100623.13
2018-10-02T20:21:47.644Z,100622.66
2018-10-02T20:24:16.183Z,100615.31
2018-10-02T20:26:44.586Z,100610.98
2018-10-02T20:29:12.995Z,100615.31
2018-10-02T20:31:46.113Z,100623.52
2018-10-02T20:34:14.527Z,100623.95
2018-10-02T20:36:43.087Z,100633.89
2018-10-02T20:39:12.188Z,100632.16
2018-10-02T20:41:40.574Z,100637.75
2018-10-02T20:44:09.304Z,100640.34
2018-10-02T20:46:37.698Z,100641.17
2018-10-02T20:49:06.232Z,100629.50
2018-10-02T20:51:34.579Z,100632.99
2018-10-02T20:54:02.967Z,100625.64
2018-10-02T20:56:31.685Z,100623.92
2018-10-02T20:59:00.187Z,100626.51
2018-10-02T21:01:28.700Z,100631.70
2018-10-02T21:03:57.079Z,100634.28
2018-10-02T21:06:25.772Z,100617.41
2018-10-02T21:08:54.327Z,100625.61
2018-10-02T21:11:22.728Z,100625.14
2018-10-02T21:13:51.212Z,100626.84
2018-10-02T21:16:19.640Z,100616.87
2018-10-02T21:18:48.027Z,100622.88
2018-10-02T21:21:16.430Z,100623.70
2018-10-02T21:23:44.818Z,100624.54
2018-10-02T21:26:13.218Z,100624.97
2018-10-02T21:28:41.631Z,100616.76
2018-10-02T21:31:10.055Z,100607.22
2018-10-02T21:33:38.436Z,100607.25
2018-10-02T21:36:06.851Z,100609.38
2018-10-02T21:38:35.259Z,100602.47
2018-10-02T21:41:03.647Z,100604.62
2018-10-02T21:43:32.050Z,100595.52
2018-10-02T21:46:00.444Z,100602.86
2018-10-02T21:48:28.907Z,100598.97
2018-10-02T21:50:57.274Z,100599.41
2018-10-02T21:53:25.671Z,100594.27
2018-10-02T21:55:54.055Z,100593.86
2018-10-02T21:58:22.462Z,100596.48
2018-10-02T22:00:50.855Z,100592.64
2018-10-02T22:03:19.276Z,100595.73
2018-10-02T22:05:47.652Z,100610.48
2018-10-02T22:08:16.063Z,100601.88
2018-10-02T22:10:44.442Z,100605.80
2018-10-02T22:13:12.889Z,100620.13
2018-10-02T22:15:41.269Z,100616.70
2018-10-02T22:18:09.670Z,100608.09
2018-10-02T22:20:38.055Z,100608.96
2018-10-02T22:23:06.595Z,100598.55
2018-10-02T22:25:34.979Z,100603.24
2018-10-02T22:28:03.391Z,100597.98
2018-10-02T22:30:31.860Z,100600.91
2018-10-02T22:33:00.258Z,100590.48
2018-10-02T22:35:28.643Z,100591.23
2018-10-02T22:37:57.101Z,100589.00
2018-10-02T22:40:25.473Z,100590.27
2018-10-02T22:42:53.875Z,100584.14
2018-10-02T22:45:22.259Z,100594.91
2018-10-02T22:47:50.663Z,100601.78
2018-10-02T22:50:19.038Z,100605.67
2018-10-02T22:52:47.427Z,100589.72
2018-10-02T22:55:15.797Z,100588.00
2018-10-02T22:57:44.240Z,100586.73
2018-10-02T23:00:12.618Z,100575.94
2018-10-02T23:02:41.021Z,100575.51
2018-10-02T23:05:09.408Z,100571.63
2018-10-02T23:07:37.815Z,100581.98
2018-10-02T23:10:06.200Z,100577.70
2018-10-02T23:12:34.623Z,100571.22
2018-10-02T23:15:03.001Z,100570.36
2018-10-02T23:17:31.427Z,100564.71
2018-10-02T23:19:59.831Z,100566.88
2018-10-02T23:22:28.216Z,100562.55
2018-10-02T23:24:56.625Z,100572.05
2018-10-02T23:27:24.997Z,100575.47
2018-10-02T23:29:53.438Z,100567.66
2018-10-02T23:32:21.822Z,100573.24
2018-10-02T23:34:50.219Z,100577.52
2018-10-02T23:37:18.614Z,100584.86
2018-10-02T23:39:47.011Z,100587.85
2018-10-02T23:42:15.383Z,100570.58
2018-10-02T23:44:43.769Z,100578.78
2018-10-02T23:47:12.149Z,100589.54
2018-10-02T23:49:40.542Z,100581.77
2018-10-02T23:52:08.923Z,100590.37
2018-10-02T23:54:37.324Z,100575.69
2018-10-02T23:57:05.811Z,100578.28
2018-10-02T23:59:34.215Z,100564.89
